Terminal Aerodrome Forecast
Issued by NWS Shreveport, LA

Home | Current Version | Previous Version | Text Only | Print | Product List | Glossary On
Versions: 1 2 3 4 5 6 7 8 9 10 11 12 13 14 15 16 17 18 19 20
000
FTUS44 KSHV 232039 AAA
TAFLFK
TAF AMD
KLFK 232039Z 2321/2418 12005KT P6SM VCTS SCT060CB
      TEMPO 2321/2323 VRB10G20KT 4SM TSRA BR OVC030CB
     FM240000 VRB03KT P6SM SCT050 BKN250=

USA.gov is the U.S. government's official web portal to all federal, state and local government web resources and services.